sensor_id;sensor_type;location;lat;lon;timestamp;P1;durP1;ratioP1;P2;durP2;ratioP2
14686;SDS011;7431;49.440;11.084;2024-01-15T00:00:02;23.97;;;9.50;;
14686;SDS011;7431;49.440;11.084;2024-01-15T00:02:29;22.47;;;9.53;;
14686;SDS011;7431;49.440;11.084;2024-01-15T00:04:55;15.33;;;8.77;;
14686;SDS011;7431;49.440;11.084;2024-01-15T00:07:20;16.20;;;8.93;;
14686;SDS011;7431;49.440;11.084;2024-01-15T00:09:46;24.23;;;10.67;;
14686;SDS011;7431;49.440;11.084;2024-01-15T00:12:11;17.40;;;8.00;;
14686;SDS011;7431;49.440;11.084;2024-01-15T00:14:37;18.43;;;8.37;;
14686;SDS011;7431;49.440;11.084;2024-01-15T00:17:02;22.23;;;9.70;;
14686;SDS011;7431;49.440;11.084;2024-01-15T00:19:28;21.83;;;10.37;;
14686;SDS011;7431;49.440;11.084;2024-01-15T00:21:57;26.93;;;9.10;;
14686;SDS011;7431;49.440;11.084;2024-01-15T00:24:22;18.17;;;8.73;;
14686;SDS011;7431;49.440;11.084;2024-01-15T00:26:48;22.33;;;9.13;;
14686;SDS011;7431;49.440;11.084;2024-01-15T00:29:13;16.90;;;8.57;;
14686;SDS011;7431;49.440;11.084;2024-01-15T00:31:39;16.70;;;7.70;;
14686;SDS011;7431;49.440;11.084;2024-01-15T00:34:04;15.77;;;7.77;;
14686;SDS011;7431;49.440;11.084;2024-01-15T00:36:30;22.97;;;8.40;;
14686;SDS011;7431;49.440;11.084;2024-01-15T00:38:56;21.37;;;7.63;;
14686;SDS011;7431;49.440;11.084;2024-01-15T00:41:22;17.40;;;8.07;;
14686;SDS011;7431;49.440;11.084;2024-01-15T00:43:47;15.90;;;8.60;;
14686;SDS011;7431;49.440;11.084;2024-01-15T00:46:14;17.57;;;8.17;;
14686;SDS011;7431;49.440;11.084;2024-01-15T00:48:40;14.97;;;7.07;;
14686;SDS011;7431;49.440;11.084;2024-01-15T00:51:06;18.57;;;8.77;;
14686;SDS011;7431;49.440;11.084;2024-01-15T00:53:32;15.30;;;7.20;;
14686;SDS011;7431;49.440;11.084;2024-01-15T00:55:57;17.43;;;7.03;;
14686;SDS011;7431;49.440;11.084;2024-01-15T00:58:23;16.40;;;7.73;;
14686;SDS011;7431;49.440;11.084;2024-01-15T01:00:49;16.50;;;9.00;;
14686;SDS011;7431;49.440;11.084;2024-01-15T01:03:14;16.93;;;7.37;;
14686;SDS011;7431;49.440;11.084;2024-01-15T01:05:40;16.40;;;8.20;;
14686;SDS011;7431;49.440;11.084;2024-01-15T01:08:06;18.27;;;8.30;;
14686;SDS011;7431;49.440;11.084;2024-01-15T01:10:32;16.23;;;7.53;;
14686;SDS011;7431;49.440;11.084;2024-01-15T01:12:57;13.00;;;7.57;;
14686;SDS011;7431;49.440;11.084;2024-01-15T01:15:23;19.73;;;7.70;;
14686;SDS011;7431;49.440;11.084;2024-01-15T01:17:49;22.17;;;8.97;;
14686;SDS011;7431;49.440;11.084;2024-01-15T01:20:15;17.67;;;7.77;;
14686;SDS011;7431;49.440;11.084;2024-01-15T01:22:41;20.23;;;8.53;;
14686;SDS011;7431;49.440;11.084;2024-01-15T01:25:07;18.00;;;8.07;;
14686;SDS011;7431;49.440;11.084;2024-01-15T01:27:33;23.03;;;10.07;;
14686;SDS011;7431;49.440;11.084;2024-01-15T01:29:58;20.87;;;7.30;;
14686;SDS011;7431;49.440;11.084;2024-01-15T01:32:24;16.53;;;8.07;;
14686;SDS011;7431;49.440;11.084;2024-01-15T01:34:49;20.33;;;8.97;;
14686;SDS011;7431;49.440;11.084;2024-01-15T01:37:15;15.53;;;7.53;;
14686;SDS011;7431;49.440;11.084;2024-01-15T01:39:41;18.73;;;8.03;;
14686;SDS011;7431;49.440;11.084;2024-01-15T01:42:08;19.87;;;7.97;;
14686;SDS011;7431;49.440;11.084;2024-01-15T01:44:34;19.23;;;8.40;;
14686;SDS011;7431;49.440;11.084;2024-01-15T01:46:59;15.37;;;7.17;;
14686;SDS011;7431;49.440;11.084;2024-01-15T01:49:26;14.10;;;8.27;;
14686;SDS011;7431;49.440;11.084;2024-01-15T01:51:52;19.00;;;7.93;;
14686;SDS011;7431;49.440;11.084;2024-01-15T01:54:20;21.10;;;8.87;;
14686;SDS011;7431;49.440;11.084;2024-01-15T01:56:46;17.47;;;7.37;;
14686;SDS011;7431;49.440;11.084;2024-01-15T01:59:13;20.10;;;8.27;;
14686;SDS011;7431;49.440;11.084;2024-01-15T02:01:39;17.07;;;6.60;;
14686;SDS011;7431;49.440;11.084;2024-01-15T02:04:05;20.27;;;8.30;;
14686;SDS011;7431;49.440;11.084;2024-01-15T02:06:31;22.17;;;9.27;;
14686;SDS011;7431;49.440;11.084;2024-01-15T02:08:57;16.47;;;7.57;;
14686;SDS011;7431;49.440;11.084;2024-01-15T02:11:23;17.33;;;6.97;;
14686;SDS011;7431;49.440;11.084;2024-01-15T02:13:48;16.67;;;6.83;;
14686;SDS011;7431;49.440;11.084;2024-01-15T02:16:14;15.13;;;7.50;;
14686;SDS011;7431;49.440;11.084;2024-01-15T02:18:43;18.57;;;7.83;;
14686;SDS011;7431;49.440;11.084;2024-01-15T02:21:10;14.60;;;6.63;;
14686;SDS011;7431;49.440;11.084;2024-01-15T02:23:36;16.40;;;7.73;;
14686;SDS011;7431;49.440;11.084;2024-01-15T02:26:02;16.83;;;7.03;;
14686;SDS011;7431;49.440;11.084;2024-01-15T02:28:28;15.70;;;6.17;;
14686;SDS011;7431;49.440;11.084;2024-01-15T02:30:54;15.37;;;6.90;;
14686;SDS011;7431;49.440;11.084;2024-01-15T02:33:19;13.97;;;6.43;;
14686;SDS011;7431;49.440;11.084;2024-01-15T02:35:45;21.13;;;7.80;;
14686;SDS011;7431;49.440;11.084;2024-01-15T02:38:15;11.93;;;5.87;;
14686;SDS011;7431;49.440;11.084;2024-01-15T02:40:41;14.37;;;7.20;;
14686;SDS011;7431;49.440;11.084;2024-01-15T02:43:08;18.83;;;7.73;;
14686;SDS011;7431;49.440;11.084;2024-01-15T02:45:33;16.33;;;7.27;;
14686;SDS011;7431;49.440;11.084;2024-01-15T02:47:59;16.47;;;6.63;;
14686;SDS011;7431;49.440;11.084;2024-01-15T02:50:25;12.33;;;6.00;;
14686;SDS011;7431;49.440;11.084;2024-01-15T02:52:50;12.97;;;6.10;;
14686;SDS011;7431;49.440;11.084;2024-01-15T02:55:16;15.37;;;6.77;;
14686;SDS011;7431;49.440;11.084;2024-01-15T02:57:42;15.20;;;6.40;;
14686;SDS011;7431;49.440;11.084;2024-01-15T03:00:08;13.17;;;6.60;;
14686;SDS011;7431;49.440;11.084;2024-01-15T03:02:37;16.50;;;6.87;;
14686;SDS011;7431;49.440;11.084;2024-01-15T03:05:05;14.73;;;6.73;;
14686;SDS011;7431;49.440;11.084;2024-01-15T03:07:32;13.63;;;6.93;;
14686;SDS011;7431;49.440;11.084;2024-01-15T03:09:58;11.07;;;4.83;;
14686;SDS011;7431;49.440;11.084;2024-01-15T03:12:24;11.63;;;5.20;;
14686;SDS011;7431;49.440;11.084;2024-01-15T03:14:49;8.93;;;5.13;;
14686;SDS011;7431;49.440;11.084;2024-01-15T03:17:15;12.67;;;6.10;;
14686;SDS011;7431;49.440;11.084;2024-01-15T03:19:41;12.10;;;6.13;;
14686;SDS011;7431;49.440;11.084;2024-01-15T03:22:06;11.70;;;5.43;;
14686;SDS011;7431;49.440;11.084;2024-01-15T03:24:33;12.17;;;5.70;;
14686;SDS011;7431;49.440;11.084;2024-01-15T03:27:00;18.87;;;6.60;;
14686;SDS011;7431;49.440;11.084;2024-01-15T03:29:26;14.03;;;5.63;;
14686;SDS011;7431;49.440;11.084;2024-01-15T03:31:51;11.03;;;6.57;;
14686;SDS011;7431;49.440;11.084;2024-01-15T03:34:17;13.00;;;5.37;;
14686;SDS011;7431;49.440;11.084;2024-01-15T03:36:43;11.07;;;4.83;;
14686;SDS011;7431;49.440;11.084;2024-01-15T03:39:08;12.73;;;5.53;;
14686;SDS011;7431;49.440;11.084;2024-01-15T03:41:34;12.10;;;5.13;;
14686;SDS011;7431;49.440;11.084;2024-01-15T03:43:59;13.67;;;5.40;;
14686;SDS011;7431;49.440;11.084;2024-01-15T03:46:26;10.57;;;5.07;;
14686;SDS011;7431;49.440;11.084;2024-01-15T03:48:52;10.00;;;5.07;;
14686;SDS011;7431;49.440;11.084;2024-01-15T03:51:18;12.87;;;6.53;;
14686;SDS011;7431;49.440;11.084;2024-01-15T03:53:43;13.37;;;5.40;;
14686;SDS011;7431;49.440;11.084;2024-01-15T03:56:09;13.80;;;6.23;;
14686;SDS011;7431;49.440;11.084;2024-01-15T03:58:35;10.30;;;5.07;;
14686;SDS011;7431;49.440;11.084;2024-01-15T04:01:00;11.73;;;6.23;;
14686;SDS011;7431;49.440;11.084;2024-01-15T04:03:26;10.73;;;5.37;;
14686;SDS011;7431;49.440;11.084;2024-01-15T04:05:52;12.43;;;5.30;;
14686;SDS011;7431;49.440;11.084;2024-01-15T04:08:17;11.53;;;5.73;;
14686;SDS011;7431;49.440;11.084;2024-01-15T04:10:43;11.23;;;5.47;;
14686;SDS011;7431;49.440;11.084;2024-01-15T04:13:08;11.23;;;5.50;;
14686;SDS011;7431;49.440;11.084;2024-01-15T04:15:34;9.80;;;6.00;;
14686;SDS011;7431;49.440;11.084;2024-01-15T04:18:01;11.70;;;4.70;;
14686;SDS011;7431;49.440;11.084;2024-01-15T04:20:28;10.37;;;4.87;;
14686;SDS011;7431;49.440;11.084;2024-01-15T04:22:53;10.27;;;4.37;;
14686;SDS011;7431;49.440;11.084;2024-01-15T04:25:19;13.10;;;5.53;;
14686;SDS011;7431;49.440;11.084;2024-01-15T04:27:44;12.23;;;5.03;;
14686;SDS011;7431;49.440;11.084;2024-01-15T04:30:10;10.37;;;5.37;;
14686;SDS011;7431;49.440;11.084;2024-01-15T04:32:36;13.20;;;6.20;;
14686;SDS011;7431;49.440;11.084;2024-01-15T04:35:02;12.40;;;5.30;;
14686;SDS011;7431;49.440;11.084;2024-01-15T04:37:27;12.73;;;6.27;;
14686;SDS011;7431;49.440;11.084;2024-01-15T04:39:53;15.17;;;7.17;;
14686;SDS011;7431;49.440;11.084;2024-01-15T04:42:20;12.97;;;5.53;;
14686;SDS011;7431;49.440;11.084;2024-01-15T04:44:46;12.07;;;5.53;;
14686;SDS011;7431;49.440;11.084;2024-01-15T04:47:12;14.50;;;5.53;;
14686;SDS011;7431;49.440;11.084;2024-01-15T04:49:37;12.43;;;4.90;;
14686;SDS011;7431;49.440;11.084;2024-01-15T04:52:03;8.40;;;4.63;;
14686;SDS011;7431;49.440;11.084;2024-01-15T04:54:28;10.37;;;6.50;;
14686;SDS011;7431;49.440;11.084;2024-01-15T04:56:54;11.80;;;5.70;;
14686;SDS011;7431;49.440;11.084;2024-01-15T04:59:19;13.47;;;5.37;;
14686;SDS011;7431;49.440;11.084;2024-01-15T05:01:45;12.00;;;6.83;;
14686;SDS011;7431;49.440;11.084;2024-01-15T05:04:10;14.93;;;4.80;;
14686;SDS011;7431;49.440;11.084;2024-01-15T05:06:36;10.33;;;5.00;;
14686;SDS011;7431;49.440;11.084;2024-01-15T05:09:02;12.00;;;5.33;;
14686;SDS011;7431;49.440;11.084;2024-01-15T05:11:28;10.87;;;5.53;;
14686;SDS011;7431;49.440;11.084;2024-01-15T05:13:54;10.23;;;4.73;;
14686;SDS011;7431;49.440;11.084;2024-01-15T05:16:20;10.10;;;5.03;;
14686;SDS011;7431;49.440;11.084;2024-01-15T05:18:45;10.83;;;5.33;;
14686;SDS011;7431;49.440;11.084;2024-01-15T05:21:11;12.97;;;5.43;;
14686;SDS011;7431;49.440;11.084;2024-01-15T05:23:37;11.40;;;5.20;;
14686;SDS011;7431;49.440;11.084;2024-01-15T05:26:03;16.97;;;5.90;;
14686;SDS011;7431;49.440;11.084;2024-01-15T05:28:29;14.10;;;6.40;;
14686;SDS011;7431;49.440;11.084;2024-01-15T05:30:54;17.30;;;5.90;;
14686;SDS011;7431;49.440;11.084;2024-01-15T05:33:21;11.37;;;5.10;;
14686;SDS011;7431;49.440;11.084;2024-01-15T05:35:47;11.40;;;5.40;;
14686;SDS011;7431;49.440;11.084;2024-01-15T05:38:15;12.23;;;5.70;;
14686;SDS011;7431;49.440;11.084;2024-01-15T05:40:41;10.60;;;4.77;;
14686;SDS011;7431;49.440;11.084;2024-01-15T05:43:06;10.10;;;4.40;;
14686;SDS011;7431;49.440;11.084;2024-01-15T05:45:33;19.07;;;6.57;;
14686;SDS011;7431;49.440;11.084;2024-01-15T05:47:59;26.60;;;13.10;;
14686;SDS011;7431;49.440;11.084;2024-01-15T05:50:25;13.50;;;5.67;;
14686;SDS011;7431;49.440;11.084;2024-01-15T05:52:51;12.63;;;6.33;;
14686;SDS011;7431;49.440;11.084;2024-01-15T05:55:17;9.53;;;4.83;;
14686;SDS011;7431;49.440;11.084;2024-01-15T05:57:43;15.57;;;6.60;;
14686;SDS011;7431;49.440;11.084;2024-01-15T06:00:09;8.47;;;4.70;;
14686;SDS011;7431;49.440;11.084;2024-01-15T06:02:37;11.30;;;5.87;;
14686;SDS011;7431;49.440;11.084;2024-01-15T06:05:03;12.83;;;6.67;;
14686;SDS011;7431;49.440;11.084;2024-01-15T06:07:29;11.80;;;5.77;;
14686;SDS011;7431;49.440;11.084;2024-01-15T06:09:55;13.00;;;6.00;;
14686;SDS011;7431;49.440;11.084;2024-01-15T06:12:22;21.23;;;9.80;;
14686;SDS011;7431;49.440;11.084;2024-01-15T06:14:47;12.07;;;6.13;;
14686;SDS011;7431;49.440;11.084;2024-01-15T06:17:13;11.97;;;4.90;;
14686;SDS011;7431;49.440;11.084;2024-01-15T06:19:39;17.30;;;7.87;;
14686;SDS011;7431;49.440;11.084;2024-01-15T06:22:04;14.43;;;6.27;;
14686;SDS011;7431;49.440;11.084;2024-01-15T06:24:30;18.90;;;7.37;;
14686;SDS011;7431;49.440;11.084;2024-01-15T06:26:55;8.43;;;5.53;;
14686;SDS011;7431;49.440;11.084;2024-01-15T06:29:21;11.90;;;6.10;;
14686;SDS011;7431;49.440;11.084;2024-01-15T06:31:47;25.60;;;10.13;;
14686;SDS011;7431;49.440;11.084;2024-01-15T06:34:12;12.07;;;5.97;;
14686;SDS011;7431;49.440;11.084;2024-01-15T06:36:38;10.97;;;4.87;;
14686;SDS011;7431;49.440;11.084;2024-01-15T06:39:06;9.40;;;5.43;;
14686;SDS011;7431;49.440;11.084;2024-01-15T06:41:32;22.47;;;8.43;;
14686;SDS011;7431;49.440;11.084;2024-01-15T06:43:57;14.63;;;6.10;;
14686;SDS011;7431;49.440;11.084;2024-01-15T06:46:26;9.67;;;5.70;;
14686;SDS011;7431;49.440;11.084;2024-01-15T06:48:51;8.87;;;4.47;;
14686;SDS011;7431;49.440;11.084;2024-01-15T06:51:17;10.37;;;5.13;;
14686;SDS011;7431;49.440;11.084;2024-01-15T06:53:42;7.87;;;3.47;;
14686;SDS011;7431;49.440;11.084;2024-01-15T06:56:08;10.10;;;5.10;;
14686;SDS011;7431;49.440;11.084;2024-01-15T06:58:34;10.63;;;6.40;;
14686;SDS011;7431;49.440;11.084;2024-01-15T07:00:59;10.60;;;6.03;;
14686;SDS011;7431;49.440;11.084;2024-01-15T07:03:25;9.10;;;4.87;;
14686;SDS011;7431;49.440;11.084;2024-01-15T07:05:51;10.33;;;4.50;;
14686;SDS011;7431;49.440;11.084;2024-01-15T07:08:16;10.30;;;5.27;;
14686;SDS011;7431;49.440;11.084;2024-01-15T07:10:42;9.47;;;5.60;;
14686;SDS011;7431;49.440;11.084;2024-01-15T07:13:08;14.30;;;5.33;;
14686;SDS011;7431;49.440;11.084;2024-01-15T07:15:34;12.70;;;5.60;;
14686;SDS011;7431;49.440;11.084;2024-01-15T07:17:59;7.53;;;4.13;;
14686;SDS011;7431;49.440;11.084;2024-01-15T07:20:25;9.60;;;4.57;;
14686;SDS011;7431;49.440;11.084;2024-01-15T07:22:50;9.60;;;5.83;;
14686;SDS011;7431;49.440;11.084;2024-01-15T07:25:16;13.83;;;5.00;;
14686;SDS011;7431;49.440;11.084;2024-01-15T07:27:42;9.63;;;5.00;;
14686;SDS011;7431;49.440;11.084;2024-01-15T07:30:10;6.27;;;4.40;;
14686;SDS011;7431;49.440;11.084;2024-01-15T07:32:38;9.00;;;4.97;;
14686;SDS011;7431;49.440;11.084;2024-01-15T07:35:05;7.70;;;5.07;;
14686;SDS011;7431;49.440;11.084;2024-01-15T07:37:31;12.40;;;5.20;;
14686;SDS011;7431;49.440;11.084;2024-01-15T07:39:56;9.47;;;4.80;;
14686;SDS011;7431;49.440;11.084;2024-01-15T07:42:22;10.77;;;5.90;;
14686;SDS011;7431;49.440;11.084;2024-01-15T07:44:47;8.83;;;5.13;;
14686;SDS011;7431;49.440;11.084;2024-01-15T07:47:13;13.53;;;5.40;;
14686;SDS011;7431;49.440;11.084;2024-01-15T07:49:39;8.97;;;4.87;;
14686;SDS011;7431;49.440;11.084;2024-01-15T07:52:04;8.63;;;5.90;;
14686;SDS011;7431;49.440;11.084;2024-01-15T07:54:31;12.03;;;6.10;;
14686;SDS011;7431;49.440;11.084;2024-01-15T07:56:58;13.20;;;6.83;;
14686;SDS011;7431;49.440;11.084;2024-01-15T07:59:25;10.80;;;5.40;;
14686;SDS011;7431;49.440;11.084;2024-01-15T08:01:51;11.00;;;5.77;;
14686;SDS011;7431;49.440;11.084;2024-01-15T08:04:18;14.37;;;5.63;;
14686;SDS011;7431;49.440;11.084;2024-01-15T08:06:44;9.57;;;4.60;;
14686;SDS011;7431;49.440;11.084;2024-01-15T08:09:10;9.40;;;5.00;;
14686;SDS011;7431;49.440;11.084;2024-01-15T08:11:35;9.77;;;5.47;;
14686;SDS011;7431;49.440;11.084;2024-01-15T08:14:01;8.97;;;4.90;;
14686;SDS011;7431;49.440;11.084;2024-01-15T08:16:26;12.13;;;5.67;;
14686;SDS011;7431;49.440;11.084;2024-01-15T08:18:52;9.60;;;5.40;;
14686;SDS011;7431;49.440;11.084;2024-01-15T08:21:18;11.47;;;5.30;;
14686;SDS011;7431;49.440;11.084;2024-01-15T08:23:44;10.33;;;5.50;;
14686;SDS011;7431;49.440;11.084;2024-01-15T08:26:10;9.07;;;4.43;;
14686;SDS011;7431;49.440;11.084;2024-01-15T08:28:36;8.00;;;5.53;;
14686;SDS011;7431;49.440;11.084;2024-01-15T08:31:01;8.93;;;5.17;;
14686;SDS011;7431;49.440;11.084;2024-01-15T08:33:28;11.90;;;5.93;;
14686;SDS011;7431;49.440;11.084;2024-01-15T08:35:53;8.40;;;4.43;;
14686;SDS011;7431;49.440;11.084;2024-01-15T08:38:19;8.70;;;5.20;;
14686;SDS011;7431;49.440;11.084;2024-01-15T08:40:45;10.63;;;5.30;;
14686;SDS011;7431;49.440;11.084;2024-01-15T08:43:10;7.13;;;4.40;;
14686;SDS011;7431;49.440;11.084;2024-01-15T08:45:36;7.07;;;4.50;;
14686;SDS011;7431;49.440;11.084;2024-01-15T08:48:02;7.13;;;4.90;;
14686;SDS011;7431;49.440;11.084;2024-01-15T08:50:29;9.23;;;5.13;;
14686;SDS011;7431;49.440;11.084;2024-01-15T08:52:54;7.97;;;4.53;;
14686;SDS011;7431;49.440;11.084;2024-01-15T08:55:20;8.90;;;5.17;;
14686;SDS011;7431;49.440;11.084;2024-01-15T08:57:47;8.07;;;4.87;;
14686;SDS011;7431;49.440;11.084;2024-01-15T09:00:13;10.07;;;5.07;;
14686;SDS011;7431;49.440;11.084;2024-01-15T09:02:39;8.53;;;4.90;;
14686;SDS011;7431;49.440;11.084;2024-01-15T09:05:05;11.77;;;5.23;;
14686;SDS011;7431;49.440;11.084;2024-01-15T09:07:31;9.77;;;4.73;;
14686;SDS011;7431;49.440;11.084;2024-01-15T09:09:57;10.77;;;4.47;;
14686;SDS011;7431;49.440;11.084;2024-01-15T09:12:24;7.27;;;4.50;;
14686;SDS011;7431;49.440;11.084;2024-01-15T09:14:50;10.20;;;4.07;;
14686;SDS011;7431;49.440;11.084;2024-01-15T09:17:17;10.73;;;4.43;;
14686;SDS011;7431;49.440;11.084;2024-01-15T09:19:42;10.60;;;4.87;;
14686;SDS011;7431;49.440;11.084;2024-01-15T09:22:09;7.13;;;4.07;;
14686;SDS011;7431;49.440;11.084;2024-01-15T09:24:35;7.63;;;4.60;;
14686;SDS011;7431;49.440;11.084;2024-01-15T09:27:00;6.63;;;4.47;;
14686;SDS011;7431;49.440;11.084;2024-01-15T09:29:27;10.43;;;4.77;;
14686;SDS011;7431;49.440;11.084;2024-01-15T09:31:53;7.30;;;3.73;;
14686;SDS011;7431;49.440;11.084;2024-01-15T09:34:18;8.97;;;4.93;;
14686;SDS011;7431;49.440;11.084;2024-01-15T09:36:44;7.30;;;4.53;;
14686;SDS011;7431;49.440;11.084;2024-01-15T09:39:09;8.30;;;5.27;;
14686;SDS011;7431;49.440;11.084;2024-01-15T09:41:36;7.80;;;3.80;;
14686;SDS011;7431;49.440;11.084;2024-01-15T09:44:03;8.67;;;4.63;;
14686;SDS011;7431;49.440;11.084;2024-01-15T09:46:29;11.23;;;4.80;;
14686;SDS011;7431;49.440;11.084;2024-01-15T09:48:57;13.00;;;5.17;;
14686;SDS011;7431;49.440;11.084;2024-01-15T09:51:23;6.30;;;4.20;;
14686;SDS011;7431;49.440;11.084;2024-01-15T09:53:50;9.07;;;4.53;;
14686;SDS011;7431;49.440;11.084;2024-01-15T09:56:15;7.53;;;4.23;;
14686;SDS011;7431;49.440;11.084;2024-01-15T09:58:41;9.90;;;4.70;;
14686;SDS011;7431;49.440;11.084;2024-01-15T10:01:07;7.13;;;4.43;;
14686;SDS011;7431;49.440;11.084;2024-01-15T10:03:34;10.33;;;4.83;;
14686;SDS011;7431;49.440;11.084;2024-01-15T10:06:00;8.13;;;4.50;;
14686;SDS011;7431;49.440;11.084;2024-01-15T10:08:27;8.77;;;5.23;;
14686;SDS011;7431;49.440;11.084;2024-01-15T10:10:53;10.67;;;5.07;;
14686;SDS011;7431;49.440;11.084;2024-01-15T10:13:18;6.43;;;4.03;;
14686;SDS011;7431;49.440;11.084;2024-01-15T10:15:45;8.57;;;4.50;;
14686;SDS011;7431;49.440;11.084;2024-01-15T10:18:15;6.87;;;3.97;;
14686;SDS011;7431;49.440;11.084;2024-01-15T10:20:40;6.40;;;3.83;;
14686;SDS011;7431;49.440;11.084;2024-01-15T10:23:07;5.77;;;3.77;;
14686;SDS011;7431;49.440;11.084;2024-01-15T10:25:34;10.13;;;4.70;;
14686;SDS011;7431;49.440;11.084;2024-01-15T10:28:01;5.73;;;4.00;;
14686;SDS011;7431;49.440;11.084;2024-01-15T10:30:28;5.50;;;3.50;;
14686;SDS011;7431;49.440;11.084;2024-01-15T10:32:57;8.40;;;4.77;;
14686;SDS011;7431;49.440;11.084;2024-01-15T10:35:26;12.07;;;5.93;;
14686;SDS011;7431;49.440;11.084;2024-01-15T10:37:55;11.23;;;5.63;;
14686;SDS011;7431;49.440;11.084;2024-01-15T10:40:21;7.70;;;4.63;;
14686;SDS011;7431;49.440;11.084;2024-01-15T10:42:47;8.60;;;4.77;;
14686;SDS011;7431;49.440;11.084;2024-01-15T10:45:13;10.87;;;4.80;;
14686;SDS011;7431;49.440;11.084;2024-01-15T10:47:39;17.30;;;9.23;;
14686;SDS011;7431;49.440;11.084;2024-01-15T10:50:06;8.90;;;5.83;;
14686;SDS011;7431;49.440;11.084;2024-01-15T10:52:33;12.17;;;6.57;;
14686;SDS011;7431;49.440;11.084;2024-01-15T10:55:00;8.50;;;5.47;;
14686;SDS011;7431;49.440;11.084;2024-01-15T10:57:27;17.30;;;8.60;;
14686;SDS011;7431;49.440;11.084;2024-01-15T10:59:54;8.93;;;5.07;;
14686;SDS011;7431;49.440;11.084;2024-01-15T11:02:19;13.33;;;6.87;;
14686;SDS011;7431;49.440;11.084;2024-01-15T11:04:45;8.83;;;5.90;;
14686;SDS011;7431;49.440;11.084;2024-01-15T11:07:11;7.77;;;4.63;;
14686;SDS011;7431;49.440;11.084;2024-01-15T11:09:38;8.33;;;5.80;;
14686;SDS011;7431;49.440;11.084;2024-01-15T11:12:09;9.23;;;4.60;;
14686;SDS011;7431;49.440;11.084;2024-01-15T11:14:45;9.67;;;4.27;;
14686;SDS011;7431;49.440;11.084;2024-01-15T11:17:12;7.03;;;4.80;;
14686;SDS011;7431;49.440;11.084;2024-01-15T11:24:55;7.23;;;4.50;;
14686;SDS011;7431;49.440;11.084;2024-01-15T11:27:42;9.70;;;6.07;;
14686;SDS011;7431;49.440;11.084;2024-01-15T11:30:08;10.57;;;6.13;;
14686;SDS011;7431;49.440;11.084;2024-01-15T11:32:38;8.33;;;4.50;;
14686;SDS011;7431;49.440;11.084;2024-01-15T11:35:07;7.93;;;4.67;;
14686;SDS011;7431;49.440;11.084;2024-01-15T11:40:22;9.00;;;4.90;;
14686;SDS011;7431;49.440;11.084;2024-01-15T11:43:04;15.30;;;7.80;;
14686;SDS011;7431;49.440;11.084;2024-01-15T11:45:30;8.13;;;4.90;;
14686;SDS011;7431;49.440;11.084;2024-01-15T11:50:25;8.13;;;5.63;;
14686;SDS011;7431;49.440;11.084;2024-01-15T11:52:58;11.13;;;6.83;;
14686;SDS011;7431;49.440;11.084;2024-01-15T11:55:27;8.53;;;5.27;;
14686;SDS011;7431;49.440;11.084;2024-01-15T11:57:55;7.50;;;5.27;;
14686;SDS011;7431;49.440;11.084;2024-01-15T12:00:22;12.13;;;5.67;;
14686;SDS011;7431;49.440;11.084;2024-01-15T12:02:48;6.50;;;4.00;;
14686;SDS011;7431;49.440;11.084;2024-01-15T12:05:16;9.93;;;4.63;;
14686;SDS011;7431;49.440;11.084;2024-01-15T12:07:42;9.93;;;4.33;;
14686;SDS011;7431;49.440;11.084;2024-01-15T12:10:10;8.17;;;4.80;;
14686;SDS011;7431;49.440;11.084;2024-01-15T12:15:17;9.40;;;5.17;;
14686;SDS011;7431;49.440;11.084;2024-01-15T12:17:43;12.97;;;6.40;;
14686;SDS011;7431;49.440;11.084;2024-01-15T12:20:10;7.27;;;4.10;;
14686;SDS011;7431;49.440;11.084;2024-01-15T12:22:37;5.43;;;3.90;;
14686;SDS011;7431;49.440;11.084;2024-01-15T12:25:03;7.20;;;3.70;;
14686;SDS011;7431;49.440;11.084;2024-01-15T12:27:28;6.13;;;3.53;;
14686;SDS011;7431;49.440;11.084;2024-01-15T12:29:54;8.50;;;5.13;;
14686;SDS011;7431;49.440;11.084;2024-01-15T12:32:20;12.50;;;7.13;;
14686;SDS011;7431;49.440;11.084;2024-01-15T12:34:48;6.67;;;4.13;;
14686;SDS011;7431;49.440;11.084;2024-01-15T12:37:14;8.23;;;4.30;;
14686;SDS011;7431;49.440;11.084;2024-01-15T12:39:42;7.33;;;4.07;;
14686;SDS011;7431;49.440;11.084;2024-01-15T12:42:09;6.83;;;4.07;;
14686;SDS011;7431;49.440;11.084;2024-01-15T12:44:35;7.67;;;4.17;;
14686;SDS011;7431;49.440;11.084;2024-01-15T12:47:02;8.73;;;3.90;;
14686;SDS011;7431;49.440;11.084;2024-01-15T12:49:29;8.93;;;3.93;;
14686;SDS011;7431;49.440;11.084;2024-01-15T12:51:58;6.97;;;4.77;;
14686;SDS011;7431;49.440;11.084;2024-01-15T12:54:24;8.57;;;4.33;;
14686;SDS011;7431;49.440;11.084;2024-01-15T12:56:51;7.33;;;4.40;;
14686;SDS011;7431;49.440;11.084;2024-01-15T12:59:18;7.30;;;4.10;;
14686;SDS011;7431;49.440;11.084;2024-01-15T13:01:44;6.63;;;4.30;;
14686;SDS011;7431;49.440;11.084;2024-01-15T13:04:10;9.17;;;4.20;;
14686;SDS011;7431;49.440;11.084;2024-01-15T13:06:36;6.27;;;4.17;;
14686;SDS011;7431;49.440;11.084;2024-01-15T13:09:02;9.03;;;4.23;;
14686;SDS011;7431;49.440;11.084;2024-01-15T13:11:31;6.03;;;3.57;;
14686;SDS011;7431;49.440;11.084;2024-01-15T13:13:58;4.30;;;3.33;;
14686;SDS011;7431;49.440;11.084;2024-01-15T13:16:23;6.57;;;4.47;;
14686;SDS011;7431;49.440;11.084;2024-01-15T13:18:52;6.27;;;4.27;;
14686;SDS011;7431;49.440;11.084;2024-01-15T13:21:17;5.27;;;4.00;;
14686;SDS011;7431;49.440;11.084;2024-01-15T13:23:43;7.00;;;4.17;;
14686;SDS011;7431;49.440;11.084;2024-01-15T13:26:08;8.93;;;3.80;;
14686;SDS011;7431;49.440;11.084;2024-01-15T13:28:34;6.53;;;3.93;;
14686;SDS011;7431;49.440;11.084;2024-01-15T13:31:00;4.70;;;3.53;;
14686;SDS011;7431;49.440;11.084;2024-01-15T13:33:26;4.33;;;3.90;;
14686;SDS011;7431;49.440;11.084;2024-01-15T13:35:51;4.87;;;3.30;;
14686;SDS011;7431;49.440;11.084;2024-01-15T13:38:17;4.73;;;3.77;;
14686;SDS011;7431;49.440;11.084;2024-01-15T13:40:42;4.70;;;3.07;;
14686;SDS011;7431;49.440;11.084;2024-01-15T13:43:10;6.83;;;3.50;;
14686;SDS011;7431;49.440;11.084;2024-01-15T13:45:36;5.77;;;3.40;;
14686;SDS011;7431;49.440;11.084;2024-01-15T13:48:02;5.43;;;3.70;;
14686;SDS011;7431;49.440;11.084;2024-01-15T13:50:30;8.30;;;5.23;;
14686;SDS011;7431;49.440;11.084;2024-01-15T13:52:56;9.27;;;5.80;;
14686;SDS011;7431;49.440;11.084;2024-01-15T13:55:22;13.07;;;6.53;;
14686;SDS011;7431;49.440;11.084;2024-01-15T13:57:48;9.03;;;4.77;;
14686;SDS011;7431;49.440;11.084;2024-01-15T14:00:14;13.23;;;4.30;;
14686;SDS011;7431;49.440;11.084;2024-01-15T14:02:43;7.33;;;4.03;;
14686;SDS011;7431;49.440;11.084;2024-01-15T14:05:09;7.67;;;4.20;;
14686;SDS011;7431;49.440;11.084;2024-01-15T14:07:37;6.37;;;3.53;;
14686;SDS011;7431;49.440;11.084;2024-01-15T14:10:06;5.43;;;3.40;;
14686;SDS011;7431;49.440;11.084;2024-01-15T14:12:33;7.50;;;3.87;;
14686;SDS011;7431;49.440;11.084;2024-01-15T14:14:58;5.70;;;3.57;;
14686;SDS011;7431;49.440;11.084;2024-01-15T14:17:25;13.27;;;5.43;;
14686;SDS011;7431;49.440;11.084;2024-01-15T14:19:50;6.57;;;3.90;;
14686;SDS011;7431;49.440;11.084;2024-01-15T14:22:16;5.37;;;3.70;;
14686;SDS011;7431;49.440;11.084;2024-01-15T14:24:41;5.77;;;3.70;;
14686;SDS011;7431;49.440;11.084;2024-01-15T14:27:07;7.57;;;4.37;;
14686;SDS011;7431;49.440;11.084;2024-01-15T14:29:34;10.13;;;4.97;;
14686;SDS011;7431;49.440;11.084;2024-01-15T14:32:00;6.13;;;3.77;;
14686;SDS011;7431;49.440;11.084;2024-01-15T14:34:26;8.60;;;4.43;;
14686;SDS011;7431;49.440;11.084;2024-01-15T14:36:52;11.00;;;5.67;;
14686;SDS011;7431;49.440;11.084;2024-01-15T14:39:19;8.83;;;4.90;;
14686;SDS011;7431;49.440;11.084;2024-01-15T14:41:48;8.57;;;4.00;;
14686;SDS011;7431;49.440;11.084;2024-01-15T14:44:14;7.27;;;4.47;;
14686;SDS011;7431;49.440;11.084;2024-01-15T14:46:43;9.60;;;4.80;;